Time;durP1;ratioP1;P1;durP2;ratioP2;P2;SDS_P1;SDS_P2;PMS_P1;PMS_P2;Temp;Humidity;BMP_temperature;BMP_pressure;BME280_temperature;BME280_humidity;BME280_pressure;Samples;Min_cycle;Max_cycle;Signal;HPM_P1;HPM_P2
2023/06/22 00:01:11;;;;;;;;;;;;;;;;;;4998493;28;19922;-71
2023/06/22 00:03:58;;;;;;;;;;;;;;;;;;4997855;28;19913;-72
2023/06/22 00:06:44;;;;;;;;;;;;;;;;;;5004192;28;19933;-73
2023/06/22 00:09:31;;;;;;;;;;;;;;;;;;5000340;28;19933;-72
2023/06/22 00:12:17;;;;;;;;;;;;;;;;;;4998066;28;19943;-73
2023/06/22 00:15:04;;;;;;;;;;;;;;;;;;4992582;28;19948;-73
2023/06/22 00:17:50;;;;;;;;;;;;;;;;;;5005749;28;20365;-72
2023/06/22 00:20:37;;;;;;;;;;;;;;;;;;4999471;28;19922;-72
2023/06/22 00:23:23;;;;;;;;;;;;;;;;;;4990921;28;19917;-73
2023/06/22 00:26:11;;;;;;;;;;;;;;;;;;4994086;28;19922;-71
2023/06/22 00:28:57;;;;;;;;;;;;;;;;;;4989163;28;19925;-72
2023/06/22 00:31:44;;;;;;;;;;;;;;;;;;4997096;28;19924;-72
2023/06/22 00:34:30;;;;;;;;;;;;;;;;;;4997401;28;19944;-71
2023/06/22 00:37:17;;;;;;;;;;;;;;;;;;5001020;28;19917;-72
2023/06/22 00:40:04;;;;;;;;;;;;;;;;;;4997819;28;20447;-72
2023/06/22 00:42:51;;;;;;;;;;;;;;;;;;4997469;28;19925;-72
2023/06/22 00:45:37;;;;;;;;;;;;;;;;;;5005310;28;19948;-72
2023/06/22 00:48:24;;;;;;;;;;;;;;;;;;5004160;28;19933;-73
2023/06/22 00:51:10;;;;;;;;;;;;;;;;;;5001257;28;19932;-72
2023/06/22 00:53:58;;;;;;;;;;;;;;;;;;4985258;28;20178;-72
2023/06/22 00:56:45;;;;;;;;;;;;;;;;;;5000857;28;19918;-72
2023/06/22 00:59:33;;;;;;;;;;;;;;;;;;5004947;28;19917;-72
2023/06/22 01:02:19;;;;;;;;;;;;;;;;;;5006064;28;19922;-71
2023/06/22 01:05:06;;;;;;;;;;;;;;;;;;4990720;28;19924;-72
2023/06/22 01:07:54;;;;;;;;;;;;;;;;;;4995271;28;20043;-72
2023/06/22 01:10:40;;;;;;;;;;;;;;;;;;5003321;28;20648;-72
2023/06/22 01:13:27;;;;;;;;;;;;;;;;;;5001304;28;19918;-72
2023/06/22 01:16:13;;;;;;;;;;;;;;;;;;5002892;28;19917;-72
2023/06/22 01:19:00;;;;;;;;;;;;;;;;;;4995683;28;19917;-72
2023/06/22 01:21:47;;;;;;;;;;;;;;;;;;4998778;28;19925;-73
2023/06/22 01:24:35;;;;;;;;;;;;;;;;;;4995634;28;19953;-73
2023/06/22 01:27:22;;;;;;;;;;;;;;;;;;4976391;28;19977;-72
2023/06/22 01:30:10;;;;;;;;;;;;;;;;;;4973591;28;19924;-72
2023/06/22 01:32:56;;;;;;;;;;;;;;;;;;4976678;28;19952;-72
2023/06/22 01:35:43;;;;;;;;;;;;;;;;;;4974325;28;19914;-72
2023/06/22 01:38:29;;;;;;;;;;;;;;;;;;4991142;28;19925;-72
2023/06/22 01:41:16;;;;;;;;;;;;;;;;;;4972673;28;19937;-72
2023/06/22 01:44:02;;;;;;;;;;;;;;;;;;4972291;28;20378;-72
2023/06/22 01:46:49;;;;;;;;;;;;;;;;;;4968734;28;19930;-72
2023/06/22 01:49:35;;;;;;;;;;;;;;;;;;4984197;28;19925;-72
2023/06/22 01:52:22;;;;;;;;;;;;;;;;;;4973019;28;19921;-73
2023/06/22 01:55:08;;;;;;;;;;;;;;;;;;4980389;28;19918;-71
2023/06/22 01:57:55;;;;;;;;;;;;;;;;;;4979978;28;19929;-72
2023/06/22 02:00:41;;;;;;;;;;;;;;;;;;4984042;28;19922;-72
2023/06/22 02:03:28;;;;;;;;;;;;;;;;;;4983953;28;19924;-71
2023/06/22 02:06:14;;;;;;;;;;;;;;;;;;4971784;28;19922;-72
2023/06/22 02:09:00;;;;;;;;;;;;;;;;;;4977710;28;19937;-72
2023/06/22 02:11:48;;;;;;;;;;;;;;;;;;4982616;28;19929;-72
2023/06/22 02:14:34;;;;;;;;;;;;;;;;;;4983907;28;19918;-72
2023/06/22 02:17:21;;;;;;;;;;;;;;;;;;4978202;28;19919;-72
2023/06/22 02:20:08;;;;;;;;;;;;;;;;;;4977381;28;19925;-72
2023/06/22 02:22:55;;;;;;;;;;;;;;;;;;4977550;28;19918;-72
2023/06/22 02:25:44;;;;;;;;;;;;;;;;;;4973657;28;20607;-72
2023/06/22 02:28:30;;;;;;;;;;;;;;;;;;4976845;28;19926;-72
2023/06/22 02:31:17;;;;;;;;;;;;;;;;;;4976226;28;19921;-72
2023/06/22 02:34:03;;;;;;;;;;;;;;;;;;4975167;28;19925;-73
2023/06/22 02:36:53;;;;;;;;;;;;;;;;;;4967192;28;19926;-74
2023/06/22 02:39:40;;;;;;;;;;;;;;;;;;4975764;28;19921;-73
2023/06/22 02:42:26;;;;;;;;;;;;;;;;;;4977995;28;19929;-73
2023/06/22 02:45:13;;;;;;;;;;;;;;;;;;4979585;28;19918;-73
2023/06/22 02:47:59;;;;;;;;;;;;;;;;;;4984024;28;19930;-72
2023/06/22 02:50:46;;;;;;;;;;;;;;;;;;4983659;28;19917;-73
2023/06/22 02:53:32;;;;;;;;;;;;;;;;;;4974348;28;19941;-72
2023/06/22 02:56:24;;;;;;;;;;;;;;;;;;4978174;28;19921;-72
2023/06/22 02:59:11;;;;;;;;;;;;;;;;;;4982806;28;19925;-72
2023/06/22 03:01:57;;;;;;;;;;;;;;;;;;4965012;28;19929;-72
2023/06/22 03:04:44;;;;;;;;;;;;;;;;;;4970921;28;20305;-73
2023/06/22 03:07:30;;;;;;;;;;;;;;;;;;4984939;28;19933;-72
2023/06/22 03:10:17;;;;;;;;;;;;;;;;;;4978290;28;19924;-71
2023/06/22 03:13:03;;;;;;;;;;;;;;;;;;4977649;28;19925;-72
2023/06/22 03:15:50;;;;;;;;;;;;;;;;;;4979505;28;19922;-72
2023/06/22 03:18:36;;;;;;;;;;;;;;;;;;4979903;28;19924;-73
2023/06/22 03:21:22;;;;;;;;;;;;;;;;;;4991718;28;19926;-72
2023/06/22 03:24:09;;;;;;;;;;;;;;;;;;4996513;28;19932;-72
2023/06/22 03:26:56;;;;;;;;;;;;;;;;;;5008825;28;20238;-72
2023/06/22 03:29:43;;;;;;;;;;;;;;;;;;5002913;28;19922;-73
2023/06/22 03:32:29;;;;;;;;;;;;;;;;;;5012789;28;19927;-72
2023/06/22 03:35:16;;;;;;;;;;;;;;;;;;5013494;28;20696;-71
2023/06/22 03:38:02;;;;;;;;;;;;;;;;;;5009659;28;20307;-72
2023/06/22 03:40:49;;;;;;;;;;;;;;;;;;5008884;28;20608;-72
2023/06/22 03:43:35;;;;;;;;;;;;;;;;;;4994788;28;19921;-73
2023/06/22 03:46:22;;;;;;;;;;;;;;;;;;5012048;28;19932;-71
2023/06/22 03:49:08;;;;;;;;;;;;;;;;;;5009899;28;20297;-72
2023/06/22 03:51:54;;;;;;;;;;;;;;;;;;5004380;28;19922;-72
2023/06/22 03:54:41;;;;;;;;;;;;;;;;;;5008300;28;19924;-73
2023/06/22 03:57:27;;;;;;;;;;;;;;;;;;5002727;28;19921;-72
2023/06/22 04:00:15;;;;;;;;;;;;;;;;;;5009017;28;19927;-72
2023/06/22 04:03:02;;;;;;;;;;;;;;;;;;5009298;28;19921;-72
2023/06/22 04:05:48;;;;;;;;;;;;;;;;;;5009354;28;20464;-72
2023/06/22 04:08:35;;;;;;;;;;;;;;;;;;5008964;28;19948;-73
2023/06/22 04:11:21;;;;;;;;;;;;;;;;;;5010873;28;19928;-72
2023/06/22 04:14:08;;;;;;;;;;;;;;;;;;5003551;28;19917;-72
2023/06/22 04:16:54;;;;;;;;;;;;;;;;;;5005329;28;19933;-72
2023/06/22 04:19:41;;;;;;;;;;;;;;;;;;5001100;28;19922;-72
2023/06/22 04:22:27;;;;;;;;;;;;;;;;;;5005469;28;20369;-73
2023/06/22 04:25:13;;;;;;;;;;;;;;;;;;5010428;28;19930;-72
2023/06/22 04:28:03;;;;;;;;;;;;;;;;;;5009442;28;19926;-72
2023/06/22 04:30:50;;;;;;;;;;;;;;;;;;4999868;28;19917;-72
2023/06/22 04:33:40;;;;;;;;;;;;;;;;;;4999951;28;19922;-72
2023/06/22 04:36:30;;;;;;;;;;;;;;;;;;5012584;28;19921;-72
2023/06/22 04:39:18;;;;;;;;;;;;;;;;;;5001514;28;19921;-72
2023/06/22 04:42:04;;;;;;;;;;;;;;;;;;5013197;28;20288;-71
2023/06/22 04:44:51;;;;;;;;;;;;;;;;;;5003431;28;19918;-72
2023/06/22 04:47:39;;;;;;;;;;;;;;;;;;4989964;28;19941;-73
2023/06/22 04:50:25;;;;;;;;;;;;;;;;;;5007247;28;19914;-72
2023/06/22 04:53:12;;;;;;;;;;;;;;;;;;4997546;28;19921;-73
2023/06/22 04:55:59;;;;;;;;;;;;;;;;;;5002509;28;19917;-73
2023/06/22 04:58:45;;;;;;;;;;;;;;;;;;5003855;28;19924;-73
2023/06/22 05:01:32;;;;;;;;;;;;;;;;;;5005810;28;19921;-72
2023/06/22 05:04:18;;;;;;;;;;;;;;;;;;5011433;28;19914;-71
2023/06/22 05:07:05;;;;;;;;;;;;;;;;;;5008243;28;19925;-72
2023/06/22 05:09:51;;;;;;;;;;;;;;;;;;5007301;28;19928;-72
2023/06/22 05:12:38;;;;;;;;;;;;;;;;;;5006420;28;19943;-72
2023/06/22 05:15:27;;;;;;;;;;;;;;;;;;5006984;28;20409;-72
2023/06/22 05:18:14;;;;;;;;;;;;;;;;;;5002358;28;19921;-72
2023/06/22 05:21:00;;;;;;;;;;;;;;;;;;4999364;28;20302;-72
2023/06/22 05:23:47;;;;;;;;;;;;;;;;;;5003173;28;19951;-72
2023/06/22 05:26:33;;;;;;;;;;;;;;;;;;5002295;28;19928;-72
2023/06/22 05:29:21;;;;;;;;;;;;;;;;;;4975410;28;19925;-72
2023/06/22 05:32:08;;;;;;;;;;;;;;;;;;4997842;28;19918;-72
2023/06/22 05:34:54;;;;;;;;;;;;;;;;;;4993677;28;19932;-71
2023/06/22 05:37:41;;;;;;;;;;;;;;;;;;4994662;28;19929;-72
2023/06/22 05:40:28;;;;;;;;;;;;;;;;;;5008901;28;19913;-71
2023/06/22 05:43:14;;;;;;;;;;;;;;;;;;5004912;28;20299;-73
2023/06/22 05:46:01;;;;;;;;;;;;;;;;;;5002563;28;19924;-72
2023/06/22 05:48:47;;;;;;;;;;;;;;;;;;4999525;28;19951;-72
2023/06/22 05:51:34;;;;;;;;;;;;;;;;;;5001842;28;19921;-76
2023/06/22 05:54:20;;;;;;;;;;;;;;;;;;4995474;28;20360;-72
2023/06/22 05:57:07;;;;;;;;;;;;;;;;;;4993623;28;19921;-72
2023/06/22 05:59:53;;;;;;;;;;;;;;;;;;5003775;28;19925;-72
2023/06/22 06:02:43;;;;;;;;;;;;;;;;;;5000300;28;19925;-73
2023/06/22 06:05:30;;;;;;;;;;;;;;;;;;4996152;28;19928;-72
2023/06/22 06:08:16;;;;;;;;;;;;;;;;;;4990538;28;19921;-72
2023/06/22 06:11:03;;;;;;;;;;;;;;;;;;4993184;28;19925;-72
2023/06/22 06:13:49;;;;;;;;;;;;;;;;;;5000677;28;19947;-72
2023/06/22 06:16:36;;;;;;;;;;;;;;;;;;5000047;28;19932;-72
2023/06/22 06:19:22;;;;;;;;;;;;;;;;;;4997741;28;19927;-72
2023/06/22 06:22:09;;;;;;;;;;;;;;;;;;5000660;28;19921;-73
2023/06/22 06:24:55;;;;;;;;;;;;;;;;;;4992602;28;19929;-70
2023/06/22 06:27:41;;;;;;;;;;;;;;;;;;4998086;28;20759;-74
2023/06/22 06:30:28;;;;;;;;;;;;;;;;;;4997612;28;19930;-77
2023/06/22 06:33:14;;;;;;;;;;;;;;;;;;4995855;28;19926;-82
2023/06/22 06:36:03;;;;;;;;;;;;;;;;;;4995875;28;20365;-79
2023/06/22 06:38:49;;;;;;;;;;;;;;;;;;5002182;28;19996;-81
2023/06/22 06:41:36;;;;;;;;;;;;;;;;;;4993520;28;19925;-76
2023/06/22 06:44:22;;;;;;;;;;;;;;;;;;4996632;28;19926;-75
2023/06/22 06:47:09;;;;;;;;;;;;;;;;;;4994590;28;19929;-75
2023/06/22 06:49:55;;;;;;;;;;;;;;;;;;5004509;28;19922;-75
2023/06/22 06:52:42;;;;;;;;;;;;;;;;;;4999109;28;19917;-76
2023/06/22 06:55:32;;;;;;;;;;;;;;;;;;4990137;28;20407;-75
2023/06/22 06:58:19;;;;;;;;;;;;;;;;;;4996225;28;19921;-74
2023/06/22 07:01:06;;;;;;;;;;;;;;;;;;5007846;28;19917;-74
2023/06/22 07:03:53;;;;;;;;;;;;;;;;;;5011298;28;19949;-74
2023/06/22 07:06:40;;;;;;;;;;;;;;;;;;5006614;28;19918;-75
2023/06/22 07:09:26;;;;;;;;;;;;;;;;;;5005364;28;19930;-75
2023/06/22 07:12:13;;;;;;;;;;;;;;;;;;5001028;28;19921;-75
2023/06/22 07:14:59;;;;;;;;;;;;;;;;;;5006730;28;20051;-75
2023/06/22 07:17:46;;;;;;;;;;;;;;;;;;5009957;28;20353;-75
2023/06/22 07:20:32;;;;;;;;;;;;;;;;;;4998545;28;19925;-76
2023/06/22 07:23:18;;;;;;;;;;;;;;;;;;5005206;28;19918;-75
2023/06/22 07:26:06;;;;;;;;;;;;;;;;;;5010535;28;20578;-76
2023/06/22 07:28:53;;;;;;;;;;;;;;;;;;5001967;28;19934;-75
2023/06/22 07:31:41;;;;;;;;;;;;;;;;;;5006521;28;19952;-75
2023/06/22 07:34:27;;;;;;;;;;;;;;;;;;5013069;28;20378;-75
2023/06/22 07:37:14;;;;;;;;;;;;;;;;;;4993708;28;19941;-75
2023/06/22 07:40:00;;;;;;;;;;;;;;;;;;5005916;28;20460;-76
2023/06/22 07:42:48;;;;;;;;;;;;;;;;;;5007556;28;19921;-75
2023/06/22 07:45:34;;;;;;;;;;;;;;;;;;5010064;28;19924;-76
2023/06/22 07:48:21;;;;;;;;;;;;;;;;;;5012684;28;19932;-75
2023/06/22 07:51:08;;;;;;;;;;;;;;;;;;5013259;28;19913;-75
2023/06/22 07:53:54;;;;;;;;;;;;;;;;;;5013897;28;19921;-74
2023/06/22 07:56:41;;;;;;;;;;;;;;;;;;5006537;28;19913;-74
2023/06/22 07:59:27;;;;;;;;;;;;;;;;;;4988060;28;20284;-75
2023/06/22 08:02:14;;;;;;;;;;;;;;;;;;5014174;28;19917;-74
2023/06/22 08:05:00;;;;;;;;;;;;;;;;;;5005188;28;20296;-74
2023/06/22 08:07:47;;;;;;;;;;;;;;;;;;5008539;28;19925;-75
2023/06/22 08:10:34;;;;;;;;;;;;;;;;;;4990571;28;19924;-75
2023/06/22 08:13:20;;;;;;;;;;;;;;;;;;4987196;28;19917;-75
2023/06/22 08:16:07;;;;;;;;;;;;;;;;;;5012314;28;19917;-74
2023/06/22 08:18:54;;;;;;;;;;;;;;;;;;5003212;28;19921;-74
2023/06/22 08:21:41;;;;;;;;;;;;;;;;;;4996349;28;20266;-76
2023/06/22 08:24:30;;;;;;;;;;;;;;;;;;5004243;28;20286;-74
2023/06/22 08:27:18;;;;;;;;;;;;;;;;;;5001188;28;20262;-77
2023/06/22 08:30:05;;;;;;;;;;;;;;;;;;4999860;28;19917;-75
2023/06/22 08:32:55;;;;;;;;;;;;;;;;;;4997299;28;19921;-79
2023/06/22 08:35:41;;;;;;;;;;;;;;;;;;5002550;28;19914;-74
2023/06/22 08:38:28;;;;;;;;;;;;;;;;;;5001898;28;20378;-76
2023/06/22 08:41:14;;;;;;;;;;;;;;;;;;4999278;28;19920;-75
2023/06/22 08:44:01;;;;;;;;;;;;;;;;;;5001007;28;19921;-74
2023/06/22 08:46:47;;;;;;;;;;;;;;;;;;5004248;28;19914;-75
2023/06/22 08:49:34;;;;;;;;;;;;;;;;;;4997917;28;20502;-74
2023/06/22 08:52:20;;;;;;;;;;;;;;;;;;5005062;28;19914;-75
2023/06/22 08:55:07;;;;;;;;;;;;;;;;;;4990375;28;20645;-74
2023/06/22 08:57:53;;;;;;;;;;;;;;;;;;5004023;28;19928;-75
2023/06/22 09:00:40;;;;;;;;;;;;;;;;;;4996634;28;19941;-75
2023/06/22 09:03:26;;;;;;;;;;;;;;;;;;5004401;28;19924;-75
2023/06/22 09:06:14;;;;;;;;;;;;;;;;;;5007960;28;19921;-74
2023/06/22 09:09:00;;;;;;;;;;;;;;;;;;5006190;28;19928;-73
2023/06/22 09:11:47;;;;;;;;;;;;;;;;;;4992773;28;19917;-74
2023/06/22 09:14:33;;;;;;;;;;;;;;;;;;5001715;28;19926;-74
2023/06/22 09:17:20;;;;;;;;;;;;;;;;;;4998764;28;19918;-73
2023/06/22 09:20:07;;;;;;;;;;;;;;;;;;5005063;28;20381;-73
2023/06/22 09:22:54;;;;;;;;;;;;;;;;;;5007020;28;20391;-72
2023/06/22 09:25:40;;;;;;;;;;;;;;;;;;4998066;28;19937;-73
2023/06/22 09:28:27;;;;;;;;;;;;;;;;;;5007652;28;19930;-73
2023/06/22 09:31:15;;;;;;;;;;;;;;;;;;4992827;28;19929;-73
2023/06/22 09:34:01;;;;;;;;;;;;;;;;;;5005451;28;19921;-73
2023/06/22 09:36:48;;;;;;;;;;;;;;;;;;4992790;28;20576;-72
2023/06/22 09:39:34;;;;;;;;;;;;;;;;;;4990934;28;19918;-74
2023/06/22 09:42:21;;;;;;;;;;;;;;;;;;5004265;28;19921;-72
2023/06/22 09:45:07;;;;;;;;;;;;;;;;;;5002852;28;19932;-72
2023/06/22 09:47:54;;;;;;;;;;;;;;;;;;4994744;28;19948;-74
2023/06/22 09:50:40;;;;;;;;;;;;;;;;;;5007928;28;19921;-77
2023/06/22 09:53:27;;;;;;;;;;;;;;;;;;5002043;28;19928;-71
2023/06/22 09:56:16;;;;;;;;;;;;;;;;;;4996928;28;19925;-73
2023/06/22 09:59:03;;;;;;;;;;;;;;;;;;4994338;28;19929;-71
2023/06/22 10:01:49;;;;;;;;;;;;;;;;;;5000030;28;19952;-73
2023/06/22 10:04:36;;;;;;;;;;;;;;;;;;5004128;28;19917;-73
2023/06/22 10:07:22;;;;;;;;;;;;;;;;;;5000562;28;19922;-72
2023/06/22 10:10:09;;;;;;;;;;;;;;;;;;4994243;28;19923;-72
2023/06/22 10:12:55;;;;;;;;;;;;;;;;;;5001122;28;19940;-71
2023/06/22 10:15:42;;;;;;;;;;;;;;;;;;4995130;28;20365;-72
2023/06/22 10:18:30;;;;;;;;;;;;;;;;;;4993881;28;19918;-72
2023/06/22 10:21:17;;;;;;;;;;;;;;;;;;4995954;28;19924;-72
2023/06/22 10:24:06;;;;;;;;;;;;;;;;;;4999484;28;19940;-72
2023/06/22 10:26:52;;;;;;;;;;;;;;;;;;4991576;28;19917;-72
2023/06/22 10:29:39;;;;;;;;;;;;;;;;;;5002679;28;19929;-72
2023/06/22 10:32:25;;;;;;;;;;;;;;;;;;4999174;28;19924;-72
2023/06/22 10:35:13;;;;;;;;;;;;;;;;;;5000784;28;20317;-72
2023/06/22 10:38:00;;;;;;;;;;;;;;;;;;5004910;28;19940;-74
2023/06/22 10:40:46;;;;;;;;;;;;;;;;;;4987698;28;20384;-75
2023/06/22 10:43:33;;;;;;;;;;;;;;;;;;4997878;28;19921;-75
2023/06/22 10:46:19;;;;;;;;;;;;;;;;;;4996184;28;19918;-73
2023/06/22 10:49:06;;;;;;;;;;;;;;;;;;4995470;28;19934;-75
2023/06/22 10:51:52;;;;;;;;;;;;;;;;;;5011368;28;19917;-75
2023/06/22 10:54:39;;;;;;;;;;;;;;;;;;5007262;28;19928;-74
2023/06/22 10:57:25;;;;;;;;;;;;;;;;;;5009540;28;19921;-72
2023/06/22 11:00:12;;;;;;;;;;;;;;;;;;5012870;28;19953;-73
2023/06/22 11:02:58;;;;;;;;;;;;;;;;;;5014017;28;19913;-74
2023/06/22 11:05:45;;;;;;;;;;;;;;;;;;4996750;28;20028;-75
2023/06/22 11:08:32;;;;;;;;;;;;;;;;;;5007875;28;20348;-74
2023/06/22 11:11:18;;;;;;;;;;;;;;;;;;5002565;28;19917;-74
2023/06/22 11:14:05;;;;;;;;;;;;;;;;;;5012096;28;20399;-74
2023/06/22 11:16:51;;;;;;;;;;;;;;;;;;5007223;28;19918;-75
2023/06/22 11:19:38;;;;;;;;;;;;;;;;;;5004252;28;19913;-75
2023/06/22 11:22:24;;;;;;;;;;;;;;;;;;5000755;28;19926;-75
2023/06/22 11:25:12;;;;;;;;;;;;;;;;;;4995004;28;19956;-76
2023/06/22 11:27:58;;;;;;;;;;;;;;;;;;5017856;28;20470;-76
2023/06/22 11:30:45;;;;;;;;;;;;;;;;;;5005660;28;19926;-76
2023/06/22 11:33:31;;;;;;;;;;;;;;;;;;5001164;28;19917;-76
2023/06/22 11:36:18;;;;;;;;;;;;;;;;;;4996359;28;19917;-74
2023/06/22 11:39:05;;;;;;;;;;;;;;;;;;5007556;28;19943;-75
2023/06/22 11:41:51;;;;;;;;;;;;;;;;;;5009473;28;19925;-75
2023/06/22 11:44:38;;;;;;;;;;;;;;;;;;4997170;28;19957;-75
2023/06/22 11:47:24;;;;;;;;;;;;;;;;;;4994538;28;19921;-74
2023/06/22 11:50:11;;;;;;;;;;;;;;;;;;5011189;28;19932;-74
2023/06/22 11:52:57;;;;;;;;;;;;;;;;;;4995412;28;19928;-75
2023/06/22 11:55:44;;;;;;;;;;;;;;;;;;5001728;28;19926;-76
2023/06/22 11:58:30;;;;;;;;;;;;;;;;;;5001159;28;19965;-76
2023/06/22 12:01:17;;;;;;;;;;;;;;;;;;5001822;28;20632;-76
2023/06/22 12:04:05;;;;;;;;;;;;;;;;;;5010147;28;19967;-76
2023/06/22 12:06:51;;;;;;;;;;;;;;;;;;5007470;28;19932;-76
2023/06/22 12:09:38;;;;;;;;;;;;;;;;;;5002135;28;20348;-75
2023/06/22 12:12:24;;;;;;;;;;;;;;;;;;4997183;28;19926;-75
2023/06/22 12:15:11;;;;;;;;;;;;;;;;;;4995279;28;19929;-75
2023/06/22 12:17:57;;;;;;;;;;;;;;;;;;5005461;28;19921;-75
2023/06/22 12:20:44;;;;;;;;;;;;;;;;;;5007775;28;19943;-76
2023/06/22 12:23:31;;;;;;;;;;;;;;;;;;4997998;28;19920;-76
2023/06/22 12:26:18;;;;;;;;;;;;;;;;;;5006972;28;20381;-74
2023/06/22 12:29:04;;;;;;;;;;;;;;;;;;4998402;28;19933;-75
2023/06/22 12:31:51;;;;;;;;;;;;;;;;;;5004076;28;20308;-75
2023/06/22 12:34:37;;;;;;;;;;;;;;;;;;5008981;28;19921;-76
2023/06/22 12:37:23;;;;;;;;;;;;;;;;;;5005860;28;19917;-74
2023/06/22 12:40:10;;;;;;;;;;;;;;;;;;5006959;28;19928;-74
2023/06/22 12:42:56;;;;;;;;;;;;;;;;;;5006305;28;20284;-76
2023/06/22 12:45:43;;;;;;;;;;;;;;;;;;5009548;28;20396;-75
2023/06/22 12:48:29;;;;;;;;;;;;;;;;;;5009060;28;19935;-75
2023/06/22 12:51:16;;;;;;;;;;;;;;;;;;4999278;28;19922;-75
2023/06/22 12:54:02;;;;;;;;;;;;;;;;;;5010299;28;19918;-75
2023/06/22 12:56:49;;;;;;;;;;;;;;;;;;5001558;28;19925;-74
2023/06/22 12:59:35;;;;;;;;;;;;;;;;;;5001074;28;20231;-77
2023/06/22 13:02:22;;;;;;;;;;;;;;;;;;5002667;28;19928;-76
2023/06/22 13:05:08;;;;;;;;;;;;;;;;;;5002999;28;19917;-76
2023/06/22 13:07:55;;;;;;;;;;;;;;;;;;5002477;28;19921;-76
2023/06/22 13:10:41;;;;;;;;;;;;;;;;;;4999465;28;19950;-76
2023/06/22 13:13:28;;;;;;;;;;;;;;;;;;5009623;28;20284;-76
2023/06/22 13:16:14;;;;;;;;;;;;;;;;;;5003172;28;19925;-76
2023/06/22 13:19:01;;;;;;;;;;;;;;;;;;5002296;28;19913;-76
2023/06/22 13:21:47;;;;;;;;;;;;;;;;;;5000616;28;19950;-79
2023/06/22 13:24:34;;;;;;;;;;;;;;;;;;4996888;28;19936;-75
2023/06/22 13:27:20;;;;;;;;;;;;;;;;;;4984955;28;20378;-75
2023/06/22 13:30:07;;;;;;;;;;;;;;;;;;4975770;28;19933;-75
2023/06/22 13:32:53;;;;;;;;;;;;;;;;;;4988389;28;19913;-75
2023/06/22 13:35:42;;;;;;;;;;;;;;;;;;4987859;28;20434;-75
2023/06/22 13:38:28;;;;;;;;;;;;;;;;;;4980103;28;19921;-75
2023/06/22 13:41:15;;;;;;;;;;;;;;;;;;4982501;28;20376;-76
2023/06/22 13:44:01;;;;;;;;;;;;;;;;;;4990474;28;19925;-76
2023/06/22 13:46:48;;;;;;;;;;;;;;;;;;4988187;28;19921;-75
2023/06/22 13:49:34;;;;;;;;;;;;;;;;;;4986728;28;19940;-75
2023/06/22 13:52:21;;;;;;;;;;;;;;;;;;4982200;28;19926;-75
2023/06/22 13:55:07;;;;;;;;;;;;;;;;;;4974808;28;19928;-73
2023/06/22 13:57:54;;;;;;;;;;;;;;;;;;4982110;28;19918;-74
2023/06/22 14:00:40;;;;;;;;;;;;;;;;;;4979031;28;19918;-75
2023/06/22 14:03:27;;;;;;;;;;;;;;;;;;4974636;28;19914;-75
2023/06/22 14:06:13;;;;;;;;;;;;;;;;;;4978432;28;19922;-74
2023/06/22 14:09:00;;;;;;;;;;;;;;;;;;4976562;28;20487;-74
2023/06/22 14:11:46;;;;;;;;;;;;;;;;;;4972510;28;19928;-75
2023/06/22 14:14:33;;;;;;;;;;;;;;;;;;4980837;28;19921;-75
2023/06/22 14:17:23;;;;;;;;;;;;;;;;;;4978687;28;19921;-77
2023/06/22 14:20:10;;;;;;;;;;;;;;;;;;4980660;28;19945;-77
2023/06/22 14:22:56;;;;;;;;;;;;;;;;;;4970230;28;19914;-77
2023/06/22 14:25:43;;;;;;;;;;;;;;;;;;4986082;28;20658;-78
2023/06/22 14:28:29;;;;;;;;;;;;;;;;;;4993284;28;20008;-76
2023/06/22 14:31:16;;;;;;;;;;;;;;;;;;4995808;28;19918;-77
2023/06/22 14:34:03;;;;;;;;;;;;;;;;;;4998532;28;19975;-76
2023/06/22 14:36:49;;;;;;;;;;;;;;;;;;4991492;28;19940;-76
2023/06/22 14:39:36;;;;;;;;;;;;;;;;;;4999384;28;19914;-76
2023/06/22 14:42:23;;;;;;;;;;;;;;;;;;4995581;28;19921;-76
2023/06/22 14:45:09;;;;;;;;;;;;;;;;;;4994106;28;19928;-76
2023/06/22 14:47:55;;;;;;;;;;;;;;;;;;5000676;28;19918;-75
2023/06/22 14:50:42;;;;;;;;;;;;;;;;;;5000325;28;20385;-75
2023/06/22 14:53:28;;;;;;;;;;;;;;;;;;4993513;28;19924;-75
2023/06/22 14:56:15;;;;;;;;;;;;;;;;;;5000075;28;20407;-76
2023/06/22 14:59:01;;;;;;;;;;;;;;;;;;4998423;28;20404;-75
2023/06/22 15:01:48;;;;;;;;;;;;;;;;;;4989548;28;19942;-76
2023/06/22 15:04:35;;;;;;;;;;;;;;;;;;5011445;28;20391;-75
2023/06/22 15:07:21;;;;;;;;;;;;;;;;;;5003289;28;20377;-76
2023/06/22 15:10:08;;;;;;;;;;;;;;;;;;4999642;28;19937;-74
2023/06/22 15:12:54;;;;;;;;;;;;;;;;;;4993214;28;19931;-75
2023/06/22 15:15:41;;;;;;;;;;;;;;;;;;5007752;28;20383;-74
2023/06/22 15:18:27;;;;;;;;;;;;;;;;;;5002409;28;19922;-73
2023/06/22 15:21:16;;;;;;;;;;;;;;;;;;5007583;28;20360;-73
2023/06/22 15:24:03;;;;;;;;;;;;;;;;;;5003807;28;19935;-73
2023/06/22 15:26:50;;;;;;;;;;;;;;;;;;4993357;28;19925;-72
2023/06/22 15:29:37;;;;;;;;;;;;;;;;;;5004884;28;20609;-73
2023/06/22 15:32:23;;;;;;;;;;;;;;;;;;4996804;28;19932;-72
2023/06/22 15:35:10;;;;;;;;;;;;;;;;;;4999900;28;19940;-73
2023/06/22 15:37:56;;;;;;;;;;;;;;;;;;4988019;28;20368;-73
2023/06/22 15:40:46;;;;;;;;;;;;;;;;;;5005032;28;19925;-74
2023/06/22 15:43:32;;;;;;;;;;;;;;;;;;4990054;28;20304;-72
2023/06/22 15:46:21;;;;;;;;;;;;;;;;;;5005353;28;20266;-73
2023/06/22 15:49:07;;;;;;;;;;;;;;;;;;4997682;28;19925;-73
2023/06/22 15:51:54;;;;;;;;;;;;;;;;;;5000397;28;19924;-73
2023/06/22 15:54:40;;;;;;;;;;;;;;;;;;4999439;28;20022;-73
2023/06/22 15:57:27;;;;;;;;;;;;;;;;;;5007260;28;19928;-73
2023/06/22 16:00:13;;;;;;;;;;;;;;;;;;4996725;28;20376;-73
2023/06/22 16:03:00;;;;;;;;;;;;;;;;;;5003021;28;19921;-73
2023/06/22 16:05:46;;;;;;;;;;;;;;;;;;5001208;28;20679;-73
2023/06/22 16:08:33;;;;;;;;;;;;;;;;;;4993274;28;19929;-73
2023/06/22 16:11:20;;;;;;;;;;;;;;;;;;4996229;28;19921;-73
2023/06/22 16:14:08;;;;;;;;;;;;;;;;;;4995127;28;19927;-74
2023/06/22 16:16:55;;;;;;;;;;;;;;;;;;5001487;28;20370;-73
2023/06/22 16:19:41;;;;;;;;;;;;;;;;;;4992706;28;20286;-74
2023/06/22 16:22:28;;;;;;;;;;;;;;;;;;4996276;28;19929;-73
2023/06/22 16:25:14;;;;;;;;;;;;;;;;;;4911373;28;2006758;-73
2023/06/22 16:28:01;;;;;;;;;;;;;;;;;;5003735;28;19960;-74
2023/06/22 16:30:48;;;;;;;;;;;;;;;;;;4992114;28;19936;-73
2023/06/22 16:33:34;;;;;;;;;;;;;;;;;;5008999;28;19917;-73
2023/06/22 16:36:21;;;;;;;;;;;;;;;;;;5002338;28;19924;-73
2023/06/22 16:39:07;;;;;;;;;;;;;;;;;;4994869;28;19924;-73
2023/06/22 16:41:54;;;;;;;;;;;;;;;;;;5004980;28;19932;-74
2023/06/22 16:44:40;;;;;;;;;;;;;;;;;;5003384;28;19920;-73
2023/06/22 16:47:29;;;;;;;;;;;;;;;;;;4998419;28;19932;-73
2023/06/22 16:50:15;;;;;;;;;;;;;;;;;;5001094;28;19930;-73
2023/06/22 16:53:02;;;;;;;;;;;;;;;;;;4993427;28;19937;-73
2023/06/22 16:55:49;;;;;;;;;;;;;;;;;;4994827;28;19917;-73
2023/06/22 16:58:35;;;;;;;;;;;;;;;;;;4997863;28;20381;-73
2023/06/22 17:01:21;;;;;;;;;;;;;;;;;;4991650;28;19934;-72
2023/06/22 17:04:08;;;;;;;;;;;;;;;;;;4997083;28;19918;-72
2023/06/22 17:06:55;;;;;;;;;;;;;;;;;;4982551;28;19929;-72
2023/06/22 17:09:41;;;;;;;;;;;;;;;;;;4996746;28;20064;-74
2023/06/22 17:12:29;;;;;;;;;;;;;;;;;;5001090;28;19917;-73
2023/06/22 17:15:15;;;;;;;;;;;;;;;;;;5001459;28;20372;-73
2023/06/22 17:18:02;;;;;;;;;;;;;;;;;;4998224;28;19928;-74
2023/06/22 17:20:48;;;;;;;;;;;;;;;;;;5003553;28;19920;-75
2023/06/22 17:23:35;;;;;;;;;;;;;;;;;;5008329;28;20308;-74
2023/06/22 17:26:21;;;;;;;;;;;;;;;;;;4994735;28;19932;-76
2023/06/22 17:29:08;;;;;;;;;;;;;;;;;;4999082;28;19926;-75
2023/06/22 17:31:54;;;;;;;;;;;;;;;;;;4993218;28;19928;-74
2023/06/22 17:34:41;;;;;;;;;;;;;;;;;;4992700;28;19917;-74
2023/06/22 17:37:27;;;;;;;;;;;;;;;;;;5001678;28;19925;-74
2023/06/22 17:40:14;;;;;;;;;;;;;;;;;;4999813;28;19925;-74
2023/06/22 17:43:00;;;;;;;;;;;;;;;;;;4986883;28;20429;-75
2023/06/22 17:45:48;;;;;;;;;;;;;;;;;;4999220;28;19921;-75
2023/06/22 17:48:34;;;;;;;;;;;;;;;;;;5001494;28;19921;-74
2023/06/22 17:51:21;;;;;;;;;;;;;;;;;;5003620;28;19926;-75
2023/06/22 17:54:07;;;;;;;;;;;;;;;;;;4992616;28;20475;-74
2023/06/22 17:56:54;;;;;;;;;;;;;;;;;;5003497;28;19919;-75
2023/06/22 17:59:46;;;;;;;;;;;;;;;;;;4994433;28;19917;-75
2023/06/22 18:02:33;;;;;;;;;;;;;;;;;;4983149;28;20419;-76
2023/06/22 18:05:27;;;;;;;;;;;;;;;;;;4989767;28;19925;-74
2023/06/22 18:08:15;;;;;;;;;;;;;;;;;;4996127;28;19933;-76
2023/06/22 18:11:02;;;;;;;;;;;;;;;;;;4997275;28;19922;-74
2023/06/22 18:13:48;;;;;;;;;;;;;;;;;;5002208;28;20278;-75
2023/06/22 18:16:35;;;;;;;;;;;;;;;;;;4999591;28;19927;-74
2023/06/22 18:19:21;;;;;;;;;;;;;;;;;;5000341;28;19945;-74
2023/06/22 18:22:08;;;;;;;;;;;;;;;;;;5003567;28;19918;-74
2023/06/22 18:24:54;;;;;;;;;;;;;;;;;;4999847;28;20042;-73
2023/06/22 18:27:41;;;;;;;;;;;;;;;;;;5000185;28;20386;-74
2023/06/22 18:30:27;;;;;;;;;;;;;;;;;;4995468;28;19929;-74
2023/06/22 18:33:14;;;;;;;;;;;;;;;;;;4992975;28;20400;-74
2023/06/22 18:36:00;;;;;;;;;;;;;;;;;;4989040;28;19922;-73
2023/06/22 18:38:50;;;;;;;;;;;;;;;;;;4996612;28;19925;-74
2023/06/22 18:41:37;;;;;;;;;;;;;;;;;;5001613;28;19944;-74
2023/06/22 18:44:23;;;;;;;;;;;;;;;;;;4998103;28;19924;-73
2023/06/22 18:47:10;;;;;;;;;;;;;;;;;;4996497;28;19923;-73
2023/06/22 18:49:57;;;;;;;;;;;;;;;;;;5003305;28;19933;-73
2023/06/22 18:52:43;;;;;;;;;;;;;;;;;;5007391;28;19921;-74
2023/06/22 18:55:30;;;;;;;;;;;;;;;;;;5004553;28;20297;-73
2023/06/22 18:58:16;;;;;;;;;;;;;;;;;;4995290;28;19933;-73